Time;durP1;ratioP1;P1;durP2;ratioP2;P2;SDS_P1;SDS_P2;PMS_P1;PMS_P2;Temp;Humidity;BMP_temperature;BMP_pressure;BME280_temperature;BME280_humidity;BME280_pressure;Samples;Min_cycle;Max_cycle;Signal;HPM_P1;HPM_P2
2022/05/12 00:01:19;;;;;;;9.52;8.52;;;;;;;16.07;100.00;98514.34;4998423;28;20430;-64
2022/05/12 00:03:45;;;;;;;8.60;7.50;;;;;;;15.90;100.00;98515.06;5002001;28;20037;-64
2022/05/12 00:06:10;;;;;;;9.90;7.95;;;;;;;15.82;100.00;98517.13;5002978;28;20091;-65
2022/05/12 00:08:36;;;;;;;11.43;8.38;;;;;;;15.71;100.00;98515.88;5001236;28;20036;-65
2022/05/12 00:11:02;;;;;;;10.82;9.32;;;;;;;15.58;100.00;98517.28;4999952;28;20022;-65
2022/05/12 00:13:27;;;;;;;10.85;8.40;;;;;;;15.45;100.00;98512.59;5002470;28;20444;-65
2022/05/12 00:15:54;;;;;;;9.10;8.30;;;;;;;15.37;100.00;98513.78;5003114;28;20061;-65
2022/05/12 00:18:20;;;;;;;8.70;7.90;;;;;;;15.33;100.00;98520.84;4999684;28;20395;-64
2022/05/12 00:20:45;;;;;;;9.52;8.63;;;;;;;15.27;100.00;98513.34;4999421;28;20030;-64
2022/05/12 00:23:15;;;;;;;10.43;9.45;;;;;;;15.24;100.00;98516.03;5004040;28;20543;-63
2022/05/12 00:25:44;;;;;;;10.20;8.13;;;;;;;15.44;100.00;98503.19;5001484;28;20039;-64
2022/05/12 00:28:10;;;;;;;9.65;8.55;;;;;;;15.40;100.00;98511.09;5000905;28;20115;-61
2022/05/12 00:30:36;;;;;;;9.10;8.23;;;;;;;15.35;100.00;98519.03;5000613;28;20067;-64
2022/05/12 00:33:03;;;;;;;8.90;7.70;;;;;;;15.26;100.00;98518.56;5003373;28;20571;-65
2022/05/12 00:35:28;;;;;;;8.00;7.20;;;;;;;15.17;100.00;98513.75;5002222;28;20499;-64
2022/05/12 00:37:53;;;;;;;8.23;7.53;;;;;;;15.09;100.00;98508.91;4999968;28;20030;-65
2022/05/12 00:40:19;;;;;;;10.75;8.18;;;;;;;15.00;100.00;98514.41;5000181;28;20038;-65
2022/05/12 00:42:58;;;;;;;8.95;8.05;;;;;;;14.94;100.00;98509.47;5001926;28;20030;-63
2022/05/12 00:45:25;;;;;;;8.93;8.18;;;;;;;14.84;100.00;98508.16;5002739;28;20693;-65
2022/05/12 00:47:50;;;;;;;9.60;7.55;;;;;;;14.79;100.00;98515.22;4999795;28;20082;-65
2022/05/12 00:50:17;;;;;;;9.95;8.43;;;;;;;14.76;100.00;98515.34;4999977;28;20045;-65
2022/05/12 00:52:43;;;;;;;8.73;7.70;;;;;;;14.70;100.00;98513.00;5002010;28;20034;-65
2022/05/12 00:55:14;;;;;;;8.93;7.90;;;;;;;14.67;100.00;98511.38;4999754;28;20030;-66
2022/05/12 00:57:47;;;;;;;8.20;7.38;;;;;;;14.64;100.00;98512.31;4998061;28;20049;-64
2022/05/12 01:00:14;;;;;;;7.72;6.82;;;;;;;14.62;100.00;98511.53;5001904;28;20530;-61
2022/05/12 01:02:43;;;;;;;8.70;8.00;;;;;;;14.66;100.00;98517.44;5003054;28;20052;-65
2022/05/12 01:05:09;;;;;;;11.07;8.23;;;;;;;14.64;100.00;98514.88;4997521;28;20029;-65
2022/05/12 01:07:35;;;;;;;8.68;7.88;;;;;;;14.60;100.00;98503.00;5000517;28;20056;-65
2022/05/12 01:10:03;;;;;;;8.93;8.05;;;;;;;14.60;100.00;98512.47;5003020;28;20469;-64
2022/05/12 01:12:30;;;;;;;9.00;7.43;;;;;;;14.58;100.00;98512.56;5000820;28;20456;-65
2022/05/12 01:14:56;;;;;;;8.75;7.90;;;;;;;14.58;100.00;98502.25;4998685;28;20026;-64
2022/05/12 01:17:23;;;;;;;9.10;7.97;;;;;;;14.57;100.00;98508.28;4999416;28;20608;-65
2022/05/12 01:19:51;;;;;;;8.85;8.05;;;;;;;14.48;100.00;98503.47;5001614;28;20647;-65
2022/05/12 01:22:42;;;;;;;13.63;8.43;;;;;;;14.47;100.00;98500.97;5000913;28;20092;-66
2022/05/12 01:25:15;;;;;;;9.18;8.32;;;;;;;14.44;100.00;98493.31;4997983;28;20038;-65
2022/05/12 01:27:42;;;;;;;8.43;7.72;;;;;;;14.43;100.00;98499.34;5001135;28;20056;-65
2022/05/12 01:30:10;;;;;;;11.88;8.38;;;;;;;14.44;100.00;98501.91;5001733;28;20049;-64
2022/05/12 01:32:36;;;;;;;9.90;8.13;;;;;;;14.48;100.00;98497.47;4999613;28;20049;-65
2022/05/12 01:35:01;;;;;;;8.43;7.63;;;;;;;14.46;100.00;98507.00;4998641;28;20034;-64
2022/05/12 01:37:27;;;;;;;10.52;7.50;;;;;;;14.50;100.00;98512.00;4999438;28;20388;-64
2022/05/12 01:39:52;;;;;;;8.55;7.85;;;;;;;14.49;100.00;98505.16;5002529;28;20369;-65
2022/05/12 01:42:19;;;;;;;8.10;7.32;;;;;;;14.53;100.00;98511.88;5001027;28;20030;-64
2022/05/12 01:44:44;;;;;;;8.10;7.35;;;;;;;14.52;100.00;98517.94;4997747;28;20037;-65
2022/05/12 01:47:12;;;;;;;8.35;7.55;;;;;;;14.51;100.00;98513.66;5000275;28;20032;-65
2022/05/12 01:49:37;;;;;;;11.38;9.20;;;;;;;14.52;100.00;98517.94;4999536;28;20021;-65
2022/05/12 01:52:04;;;;;;;9.05;7.90;;;;;;;14.48;100.00;98518.94;4997389;28;20031;-65
2022/05/12 01:54:29;;;;;;;9.65;8.52;;;;;;;14.53;100.00;98511.88;4998163;28;20065;-66
2022/05/12 01:56:55;;;;;;;11.20;8.38;;;;;;;14.66;100.00;98509.69;5000678;28;20137;-65
2022/05/12 01:59:21;;;;;;;7.90;7.00;;;;;;;14.67;100.00;98503.63;5001302;28;20022;-65
2022/05/12 02:01:48;;;;;;;7.85;6.97;;;;;;;15.01;100.00;98505.78;4997349;28;20026;-66
2022/05/12 02:04:17;;;;;;;8.63;7.80;;;;;;;15.39;100.00;98499.09;4983775;28;20469;-65
2022/05/12 02:06:44;;;;;;;7.53;6.82;;;;;;;15.67;100.00;98509.16;5003931;28;20432;-64
2022/05/12 02:09:10;;;;;;;8.65;7.22;;;;;;;15.75;100.00;98507.94;5000844;28;20212;-65
2022/05/12 02:11:35;;;;;;;6.90;6.20;;;;;;;15.89;100.00;98509.94;4999538;28;20034;-64
2022/05/12 02:14:01;;;;;;;8.18;6.88;;;;;;;15.86;100.00;98510.94;5004015;28;20041;-65
2022/05/12 02:16:27;;;;;;;6.95;6.30;;;;;;;15.86;100.00;98508.34;5004685;28;20081;-65
2022/05/12 02:18:53;;;;;;;7.40;6.07;;;;;;;15.95;100.00;98509.69;5003422;28;20032;-65
2022/05/12 02:21:20;;;;;;;7.15;6.55;;;;;;;16.02;100.00;98508.53;5001261;28;20092;-65
2022/05/12 02:23:45;;;;;;;6.47;5.97;;;;;;;16.07;100.00;98509.19;5003443;28;20343;-65
2022/05/12 02:26:11;;;;;;;7.45;6.80;;;;;;;16.10;100.00;98514.22;5006686;28;20432;-65
2022/05/12 02:28:37;;;;;;;7.20;6.25;;;;;;;16.05;100.00;98510.97;5002288;28;20499;-65
2022/05/12 02:31:03;;;;;;;7.32;6.20;;;;;;;16.03;100.00;98517.97;4999119;28;20091;-64
2022/05/12 02:33:29;;;;;;;7.47;6.78;;;;;;;16.04;100.00;98516.22;5003097;28;20030;-66
2022/05/12 02:35:54;;;;;;;7.53;6.85;;;;;;;15.92;100.00;98510.66;5005902;28;20095;-62
2022/05/12 02:38:19;;;;;;;8.05;6.35;;;;;;;15.93;100.00;98511.50;5004181;28;20037;-65
2022/05/12 02:40:45;;;;;;;7.97;6.60;;;;;;;15.76;100.00;98514.78;5002442;28;20038;-64
2022/05/12 02:43:23;;;;;;;8.20;6.95;;;;;;;15.78;100.00;98515.59;5006079;28;20499;-64
2022/05/12 02:46:10;;;;;;;7.68;6.60;;;;;;;15.85;100.00;98532.50;5005432;28;20038;-64
2022/05/12 02:48:39;;;;;;;8.55;6.07;;;;;;;15.79;100.00;98519.81;5002145;28;20563;-64
2022/05/12 02:51:05;;;;;;;7.13;6.57;;;;;;;15.88;100.00;98529.78;5003318;28;20103;-63
2022/05/12 02:53:31;;;;;;;6.35;5.75;;;;;;;15.86;100.00;98535.94;5004618;28;20025;-64
2022/05/12 02:55:58;;;;;;;7.05;6.35;;;;;;;15.96;100.00;98527.72;5003761;28;20030;-65
2022/05/12 02:58:24;;;;;;;6.95;6.35;;;;;;;15.96;100.00;98532.03;5001796;28;20113;-65
2022/05/12 03:00:50;;;;;;;8.85;6.65;;;;;;;15.96;100.00;98530.31;5001540;28;20687;-63
2022/05/12 03:03:16;;;;;;;7.22;6.60;;;;;;;15.89;100.00;98533.22;5004183;28;20030;-66
2022/05/12 03:05:41;;;;;;;6.28;5.43;;;;;;;15.89;100.00;98536.66;5004615;28;20037;-64
2022/05/12 03:08:08;;;;;;;7.07;6.28;;;;;;;16.04;100.00;98537.72;4998910;28;20022;-64
2022/05/12 03:10:34;;;;;;;7.32;6.60;;;;;;;15.94;100.00;98539.03;5003118;28;20129;-64
2022/05/12 03:12:59;;;;;;;7.57;6.53;;;;;;;16.01;100.00;98540.47;5002513;28;20045;-64
2022/05/12 03:15:25;;;;;;;6.47;5.88;;;;;;;15.89;100.00;98546.16;5003762;28;20030;-65
2022/05/12 03:17:51;;;;;;;8.88;6.38;;;;;;;15.79;100.00;98543.09;4998904;28;20030;-64
2022/05/12 03:20:22;;;;;;;6.55;5.90;;;;;;;15.79;100.00;98550.00;5004552;28;20034;-65
2022/05/12 03:22:48;;;;;;;7.90;7.15;;;;;;;15.91;100.00;98552.91;5003649;28;20038;-65
2022/05/12 03:25:15;;;;;;;8.10;6.38;;;;;;;15.98;100.00;98550.94;5001604;28;20038;-64
2022/05/12 03:27:41;;;;;;;6.03;5.40;;;;;;;16.25;100.00;98551.53;5001404;28;20125;-64
2022/05/12 03:30:10;;;;;;;10.05;5.88;;;;;;;16.42;100.00;98549.03;5004693;28;20073;-64
2022/05/12 03:32:36;;;;;;;6.35;5.55;;;;;;;16.51;100.00;98571.09;5004196;28;20037;-65
2022/05/12 03:35:02;;;;;;;7.60;5.90;;;;;;;16.54;100.00;98558.84;5000854;28;20061;-65
2022/05/12 03:37:27;;;;;;;7.13;6.43;;;;;;;16.54;100.00;98563.19;5000063;28;20084;-64
2022/05/12 03:39:53;;;;;;;6.70;6.10;;;;;;;16.60;100.00;98558.59;5002890;28;20038;-65
2022/05/12 03:42:19;;;;;;;6.57;5.60;;;;;;;16.59;100.00;98561.28;5004098;28;20037;-64
2022/05/12 03:44:47;;;;;;;10.75;6.00;;;;;;;16.41;100.00;98565.47;5002023;28;20454;-64
2022/05/12 03:47:24;;;;;;;9.88;6.35;;;;;;;16.22;100.00;98569.75;5000894;28;20033;-65
2022/05/12 03:49:53;;;;;;;6.47;5.85;;;;;;;16.11;100.00;98567.63;5004541;28;20034;-64
2022/05/12 03:52:20;;;;;;;7.35;6.50;;;;;;;16.00;100.00;98568.06;5001602;28;20443;-63
2022/05/12 03:54:47;;;;;;;8.65;7.07;;;;;;;16.16;100.00;98578.63;4999578;28;20034;-65
2022/05/12 03:57:14;;;;;;;8.20;6.40;;;;;;;16.00;100.00;98582.72;5001940;28;20081;-65
2022/05/12 03:59:41;;;;;;;7.00;6.32;;;;;;;16.13;100.00;98591.66;5005208;28;20437;-65
2022/05/12 04:02:09;;;;;;;6.97;6.38;;;;;;;16.17;100.00;98585.44;5002738;28;20140;-65
2022/05/12 04:04:34;;;;;;;6.40;5.85;;;;;;;16.15;100.00;98591.59;4999624;28;20492;-65
2022/05/12 04:07:00;;;;;;;6.70;6.07;;;;;;;16.36;100.00;98591.53;5003062;28;20073;-65
2022/05/12 04:09:27;;;;;;;9.52;6.10;;;;;;;16.36;100.00;98594.13;5004501;28;20080;-64
2022/05/12 04:11:52;;;;;;;9.45;6.43;;;;;;;16.64;100.00;98590.34;5001092;28;20038;-66
2022/05/12 04:14:18;;;;;;;7.30;5.72;;;;;;;16.70;100.00;98597.88;4998874;28;20045;-66
2022/05/12 04:16:44;;;;;;;6.72;6.13;;;;;;;16.73;100.00;98595.97;5001873;28;20092;-66
2022/05/12 04:19:13;;;;;;;7.82;6.45;;;;;;;16.90;100.00;98601.25;5003010;28;20249;-65
2022/05/12 04:21:39;;;;;;;6.82;6.07;;;;;;;17.00;100.00;98606.84;5001200;28;20076;-64
2022/05/12 04:24:06;;;;;;;8.63;6.50;;;;;;;17.10;100.00;98609.88;4999961;28;20033;-65
2022/05/12 04:26:40;;;;;;;7.20;6.43;;;;;;;17.37;100.00;98613.78;5002447;28;20471;-66
2022/05/12 04:29:07;;;;;;;7.43;6.60;;;;;;;17.51;100.00;98602.78;5001798;28;20149;-66
2022/05/12 04:31:32;;;;;;;8.30;6.70;;;;;;;17.57;100.00;98610.22;4999977;28;20030;-62
2022/05/12 04:36:42;;;;;;;6.88;6.28;;;;;;;17.67;100.00;98609.78;5005217;28;20068;-60
2022/05/12 04:39:08;;;;;;;8.88;6.60;;;;;;;17.70;100.00;98611.38;5001639;28;20133;-59
2022/05/12 04:41:35;;;;;;;10.02;6.00;;;;;;;17.80;100.00;98610.03;4998430;28;20538;-59
2022/05/12 04:44:01;;;;;;;9.63;5.97;;;;;;;17.80;100.00;98607.44;4999715;28;20053;-60
2022/05/12 04:46:27;;;;;;;6.32;5.55;;;;;;;17.93;100.00;98607.66;5001901;28;20385;-60
2022/05/12 04:48:54;;;;;;;8.68;5.88;;;;;;;17.98;100.00;98609.13;5001624;28;20484;-60
2022/05/12 04:51:20;;;;;;;7.55;6.13;;;;;;;18.07;100.00;98613.88;4998906;28;20581;-66
2022/05/12 04:53:46;;;;;;;6.47;5.88;;;;;;;18.24;100.00;98615.63;5003036;28;20030;-65
2022/05/12 04:56:12;;;;;;;6.63;6.05;;;;;;;18.33;100.00;98616.91;5001794;28;20049;-62
2022/05/12 04:58:38;;;;;;;6.50;5.90;;;;;;;18.42;100.00;98619.03;4999680;28;20041;-68
2022/05/12 05:01:04;;;;;;;8.02;6.97;;;;;;;18.61;100.00;98614.63;4998694;28;20507;-68
2022/05/12 05:03:29;;;;;;;6.78;6.20;;;;;;;18.69;100.00;98612.47;4991589;28;20405;-63
2022/05/12 05:05:55;;;;;;;7.90;6.35;;;;;;;18.79;100.00;98621.47;4999832;28;20452;-70
2022/05/12 05:08:22;;;;;;;10.48;6.25;;;;;;;18.96;100.00;98621.41;4998500;28;20112;-66
2022/05/12 05:10:49;;;;;;;7.18;6.57;;;;;;;19.05;100.00;98625.28;4997517;28;20037;-67
2022/05/12 05:13:18;;;;;;;6.15;5.50;;;;;;;19.06;100.00;98627.78;5001444;28;20551;-66
2022/05/12 05:15:44;;;;;;;7.68;6.15;;;;;;;19.12;100.00;98616.22;4998999;28;20128;-67
2022/05/12 05:18:11;;;;;;;7.47;6.65;;;;;;;19.27;100.00;98625.78;4998432;28;20041;-68
2022/05/12 05:20:37;;;;;;;7.45;6.75;;;;;;;19.30;100.00;98630.00;4998222;28;20136;-68
2022/05/12 05:23:02;;;;;;;5.85;5.35;;;;;;;19.41;100.00;98628.47;4999938;28;20079;-68
2022/05/12 05:25:29;;;;;;;7.80;7.00;;;;;;;19.50;100.00;98630.63;4998087;28;20060;-68
2022/05/12 05:27:56;;;;;;;6.40;6.00;;;;;;;19.55;100.00;98631.22;4998497;28;20033;-68
2022/05/12 05:30:24;;;;;;;6.75;6.15;;;;;;;19.76;100.00;98636.97;4998530;28;20080;-68
2022/05/12 05:32:50;;;;;;;8.05;6.28;;;;;;;19.69;100.00;98634.81;5002228;28;20030;-67
2022/05/12 05:35:16;;;;;;;9.43;6.38;;;;;;;19.82;98.62;98646.19;4997819;28;20026;-66
2022/05/12 05:37:43;;;;;;;6.30;5.68;;;;;;;20.01;98.01;98631.22;4996944;28;20439;-69
2022/05/12 05:40:13;;;;;;;7.50;6.80;;;;;;;20.10;98.59;98648.06;4998548;28;20030;-68
2022/05/12 05:42:40;;;;;;;7.65;6.10;;;;;;;20.27;98.08;98640.97;4999627;28;20032;-68
2022/05/12 05:45:10;;;;;;;6.60;6.03;;;;;;;20.44;96.22;98645.22;5000755;28;20057;-65
2022/05/12 05:47:37;;;;;;;6.88;6.07;;;;;;;20.58;95.45;98644.44;4997869;28;20100;-65
2022/05/12 05:50:03;;;;;;;8.60;5.65;;;;;;;20.72;94.84;98632.22;5002290;28;20123;-64
2022/05/12 05:55:13;;;;;;;6.43;5.93;;;;;;;20.96;95.02;98650.78;4998281;28;20040;-63
2022/05/12 05:57:38;;;;;;;6.53;5.93;;;;;;;21.13;94.56;98649.78;4998204;28;20046;-63
2022/05/12 06:00:05;;;;;;;6.85;5.93;;;;;;;21.27;94.10;98641.94;5001581;28;20038;-61
2022/05/12 06:02:32;;;;;;;7.07;6.50;;;;;;;21.49;94.02;98647.50;4999793;28;20034;-63
2022/05/12 06:04:58;;;;;;;7.22;6.43;;;;;;;21.69;93.25;98643.59;4998198;28;20044;-66
2022/05/12 06:07:23;;;;;;;7.45;5.78;;;;;;;21.70;90.38;98637.47;4996233;28;20101;-64
2022/05/12 06:09:49;;;;;;;5.93;5.40;;;;;;;21.66;89.44;98636.81;5002750;28;20344;-64
2022/05/12 06:12:14;;;;;;;8.45;5.82;;;;;;;21.81;91.73;98646.25;5000187;28;20037;-63
2022/05/12 06:14:40;;;;;;;7.72;5.53;;;;;;;22.06;91.05;98647.34;4996778;28;20331;-64
2022/05/12 06:17:06;;;;;;;5.95;5.45;;;;;;;22.26;90.37;98642.47;4983511;28;20157;-65
2022/05/12 06:19:31;;;;;;;6.45;5.95;;;;;;;22.46;88.52;98648.13;4980066;28;20034;-64
2022/05/12 06:21:57;;;;;;;5.80;5.30;;;;;;;22.61;87.43;98653.19;4981407;28;20034;-64
2022/05/12 06:24:23;;;;;;;6.00;5.20;;;;;;;22.80;86.66;98649.34;4977419;28;20046;-65
2022/05/12 06:26:48;;;;;;;5.75;5.25;;;;;;;22.99;85.51;98655.84;4979863;28;20057;-65
2022/05/12 06:29:13;;;;;;;5.97;5.47;;;;;;;23.13;83.04;98657.47;4982054;28;20052;-61
2022/05/12 06:31:41;;;;;;;6.13;5.68;;;;;;;23.21;83.35;98657.81;4978711;28;20328;-65
2022/05/12 06:34:06;;;;;;;6.60;5.47;;;;;;;23.34;82.42;98658.59;4978852;28;20038;-64
2022/05/12 06:36:32;;;;;;;5.88;5.38;;;;;;;23.44;82.24;98662.28;4980528;28;20041;-65
2022/05/12 06:38:57;;;;;;;7.05;5.95;;;;;;;23.63;80.86;98662.66;4981808;28;20061;-64
2022/05/12 06:41:25;;;;;;;5.95;5.45;;;;;;;23.75;80.56;98663.53;4979105;28;20606;-64
2022/05/12 06:43:52;;;;;;;5.53;4.70;;;;;;;23.92;78.71;98659.72;4977402;28;20038;-64
2022/05/12 06:46:19;;;;;;;7.38;4.90;;;;;;;24.06;77.44;98660.34;4981876;28;20038;-64
2022/05/12 06:48:46;;;;;;;4.68;4.32;;;;;;;24.30;76.38;98662.16;4982584;28;20050;-64
2022/05/12 06:51:13;;;;;;;10.30;5.68;;;;;;;24.46;74.64;98662.69;4980251;28;20129;-65
2022/05/12 06:53:39;;;;;;;5.63;5.13;;;;;;;24.63;72.05;98666.66;4979277;28;20455;-64
2022/05/12 06:56:05;;;;;;;5.30;4.88;;;;;;;24.81;70.82;98665.25;4980213;28;20126;-64
2022/05/12 06:58:30;;;;;;;6.72;5.40;;;;;;;25.01;78.03;98665.44;4984265;28;20420;-66
2022/05/12 07:00:56;;;;;;;5.22;4.10;;;;;;;25.26;60.53;98666.13;4983723;28;20050;-64
2022/05/12 07:03:22;;;;;;;5.32;4.82;;;;;;;25.53;57.51;98666.63;4979579;28;20038;-65
2022/05/12 07:05:47;;;;;;;5.68;4.43;;;;;;;25.80;52.79;98660.97;4984882;28;20488;-64
2022/05/12 07:08:13;;;;;;;5.05;4.50;;;;;;;26.13;49.46;98658.22;4987231;28;20109;-65
2022/05/12 07:10:38;;;;;;;4.90;4.50;;;;;;;26.16;48.40;98663.22;4981419;28;20042;-64
2022/05/12 07:13:04;;;;;;;5.25;4.75;;;;;;;26.22;47.10;98664.56;4980480;28;20119;-64
2022/05/12 07:15:30;;;;;;;4.50;4.20;;;;;;;26.28;48.17;98669.28;4985314;28;20042;-65
2022/05/12 07:17:57;;;;;;;9.07;4.60;;;;;;;26.35;48.59;98678.34;5004334;28;20432;-64
2022/05/12 07:28:38;;;;;;;4.38;4.10;;;;;;;26.84;44.92;98675.06;5000739;28;20681;-64
2022/05/12 07:31:05;;;;;;;5.70;5.20;;;;;;;26.80;46.00;98671.88;5000412;28;20038;-65
2022/05/12 07:33:35;;;;;;;5.35;4.85;;;;;;;26.96;44.97;98676.69;5002674;28;20034;-64
2022/05/12 07:36:03;;;;;;;5.55;5.00;;;;;;;27.00;44.34;98675.47;5004367;28;20234;-65
2022/05/12 07:38:29;;;;;;;6.32;4.50;;;;;;;26.95;45.26;98677.66;5001927;28;20044;-65
2022/05/12 07:40:54;;;;;;;6.00;4.85;;;;;;;27.13;45.02;98675.25;5000563;28;20065;-65
2022/05/12 07:43:20;;;;;;;4.88;4.45;;;;;;;27.14;43.38;98676.94;5006975;28;20113;-64
2022/05/12 07:45:47;;;;;;;8.50;4.97;;;;;;;27.21;41.75;98678.06;5005022;28;20087;-65
2022/05/12 07:48:12;;;;;;;4.75;4.38;;;;;;;27.11;41.91;98675.41;4998773;28;20064;-63
2022/05/12 07:50:39;;;;;;;5.05;4.53;;;;;;;26.93;42.04;98673.50;4998684;28;20087;-64
2022/05/12 07:53:05;;;;;;;4.95;4.53;;;;;;;27.04;41.88;98679.50;5004130;28;20033;-68
2022/05/12 07:55:32;;;;;;;4.85;4.18;;;;;;;27.05;41.13;98670.66;5002862;28;20026;-66
2022/05/12 07:57:58;;;;;;;5.88;5.32;;;;;;;26.94;42.14;98680.44;4998797;28;20388;-67
2022/05/12 08:00:25;;;;;;;6.45;4.28;;;;;;;27.03;42.51;98684.91;5001559;28;20030;-64
2022/05/12 08:02:51;;;;;;;4.60;4.20;;;;;;;27.09;42.21;98661.53;5003633;28;20702;-66
2022/05/12 08:05:18;;;;;;;4.80;4.50;;;;;;;27.07;41.70;98676.63;5002658;28;20624;-65
2022/05/12 08:07:45;;;;;;;4.32;3.85;;;;;;;27.08;42.70;98680.06;5000089;28;20491;-65
2022/05/12 08:10:11;;;;;;;4.70;4.30;;;;;;;27.04;42.52;98683.94;5002969;28;20348;-66
2022/05/12 08:12:36;;;;;;;7.93;4.45;;;;;;;27.17;42.19;98672.22;5003667;28;20033;-66
2022/05/12 08:15:03;;;;;;;5.13;4.78;;;;;;;27.40;42.18;98677.31;5003092;28;20030;-67
2022/05/12 08:17:28;;;;;;;5.13;4.63;;;;;;;27.50;41.88;98675.56;4999077;28;20053;-65
2022/05/12 08:19:54;;;;;;;4.18;3.97;;;;;;;27.68;40.21;98680.06;5002581;28;20037;-67
2022/05/12 08:22:19;;;;;;;4.57;4.15;;;;;;;27.68;40.76;98681.84;5002365;28;20040;-66
2022/05/12 08:24:44;;;;;;;4.60;4.03;;;;;;;27.66;39.33;98687.28;5002376;28;20476;-66
2022/05/12 08:27:10;;;;;;;6.05;3.90;;;;;;;27.77;37.99;98685.47;4983658;28;20042;-65
2022/05/12 08:29:35;;;;;;;4.88;3.67;;;;;;;27.79;38.28;98676.47;4983749;28;20044;-65
2022/05/12 08:32:01;;;;;;;9.70;4.95;;;;;;;27.85;38.98;98683.81;5000756;28;20022;-68
2022/05/12 08:34:28;;;;;;;4.97;4.22;;;;;;;27.82;37.84;98675.34;5000005;28;20524;-60
2022/05/12 08:36:54;;;;;;;4.88;4.40;;;;;;;27.84;36.41;98694.53;4998344;28;20037;-61
2022/05/12 08:39:19;;;;;;;4.47;4.18;;;;;;;27.96;37.22;98681.09;5002506;28;20026;-60
2022/05/12 08:41:55;;;;;;;5.80;4.28;;;;;;;27.98;37.29;98683.56;5003061;28;20445;-62
2022/05/12 08:44:21;;;;;;;5.63;3.95;;;;;;;28.11;37.40;98682.38;4999169;28;20532;-62
2022/05/12 08:46:55;;;;;;;5.50;4.55;;;;;;;28.22;37.60;98685.84;4998511;28;20026;-62
2022/05/12 08:49:20;;;;;;;7.95;4.75;;;;;;;28.25;37.72;98682.94;5003705;28;20543;-66
2022/05/12 08:51:51;;;;;;;4.55;3.95;;;;;;;28.35;37.46;98689.00;5001742;28;20363;-63
2022/05/12 08:54:22;;;;;;;5.00;3.90;;;;;;;28.34;35.69;98688.22;4999640;28;20034;-63
2022/05/12 08:56:48;;;;;;;4.53;4.13;;;;;;;28.52;36.38;98691.78;5000742;28;20132;-63
2022/05/12 08:59:14;;;;;;;4.32;3.88;;;;;;;28.34;37.67;98684.72;5002793;28;20038;-63
2022/05/12 09:01:46;;;;;;;3.83;3.53;;;;;;;28.40;36.19;98690.28;5002028;28;20084;-62
2022/05/12 09:04:30;;;;;;;5.57;3.47;;;;;;;28.56;35.85;98695.81;4999041;28;20073;-64
2022/05/12 09:06:58;;;;;;;4.43;4.20;;;;;;;28.70;36.09;98691.94;4999799;28;20488;-66
2022/05/12 09:09:32;;;;;;;5.82;4.28;;;;;;;28.60;34.94;98697.19;5000018;28;20041;-66
2022/05/12 09:11:57;;;;;;;;;;;;;;;28.31;35.57;98703.44;4994460;28;20038;-65
2022/05/12 09:14:35;;;;;;;5.07;4.60;;;;;;;28.09;35.44;98704.53;4997845;28;20410;-67
2022/05/12 09:17:02;;;;;;;5.35;4.13;;;;;;;28.28;37.47;98694.03;4997176;28;20944;-66
2022/05/12 09:19:28;;;;;;;4.50;4.10;;;;;;;28.31;36.50;98692.91;5000961;28;20038;-65
2022/05/12 09:21:55;;;;;;;4.18;3.88;;;;;;;28.35;36.67;98683.75;4997024;28;20042;-66
2022/05/12 09:24:21;;;;;;;4.78;4.30;;;;;;;28.44;37.69;98688.19;4997986;28;20030;-66
2022/05/12 09:26:49;;;;;;;4.35;4.00;;;;;;;28.63;35.62;98696.09;4999323;28;20029;-66
2022/05/12 09:29:24;;;;;;;4.57;3.78;;;;;;;28.40;35.31;98695.53;4999269;28;20040;-65
2022/05/12 09:32:15;;;;;;;8.43;4.55;;;;;;;28.34;35.48;98695.28;4998737;28;20525;-66
2022/05/12 09:34:46;;;;;;;6.38;4.40;;;;;;;28.27;35.92;98702.91;4998805;28;20083;-65
2022/05/12 09:37:26;;;;;;;4.60;4.07;;;;;;;28.46;35.72;98700.28;5003088;28;20042;-66
2022/05/12 09:40:17;;;;;;;3.80;3.50;;;;;;;28.66;36.65;98698.44;4982181;28;20029;-66
2022/05/12 09:42:46;;;;;;;4.45;4.05;;;;;;;28.43;35.58;98712.91;4919603;29;20175;-66
2022/05/12 09:45:26;;;;;;;5.07;4.55;;;;;;;28.66;36.34;98697.59;4920504;29;20130;-65
2022/05/12 09:48:31;;;;;;;4.38;4.07;;;;;;;28.77;35.03;98706.22;4911778;29;20139;-64
2022/05/12 09:51:24;;;;;;;4.35;3.92;;;;;;;28.78;36.09;98715.81;4884136;29;20132;-68
2022/05/12 09:53:52;;;;;;;4.40;3.95;;;;;;;29.01;35.38;98703.13;4885529;29;20051;-65
2022/05/12 09:56:27;;;;;;;5.10;4.75;;;;;;;28.87;36.51;98706.22;4886477;29;20048;-65
2022/05/12 09:59:13;;;;;;;8.15;4.63;;;;;;;28.83;36.46;98707.47;4883721;29;20570;-66
2022/05/12 10:01:53;;;;;;;5.60;5.15;;;;;;;28.76;34.75;98709.84;4884626;29;20134;-65
2022/05/12 10:10:10;;;;;;;4.53;4.13;;;;;;;28.91;35.92;98700.50;4883952;29;20484;-58
2022/05/12 10:12:56;;;;;;;5.13;4.72;;;;;;;28.92;36.91;98709.25;4885141;29;20124;-66
2022/05/12 10:15:38;;;;;;;7.65;4.78;;;;;;;28.79;36.53;98706.94;4886991;29;20047;-68
2022/05/12 10:18:28;;;;;;;5.80;4.68;;;;;;;28.74;37.25;98705.69;4883086;29;20083;-67
2022/05/12 10:20:57;;;;;;;4.95;4.50;;;;;;;28.64;36.88;98713.59;4962956;28;20184;-66
2022/05/12 10:23:46;;;;;;;4.95;4.30;;;;;;;28.70;36.39;98702.50;4999128;28;20022;-68
2022/05/12 10:26:20;;;;;;;6.00;4.63;;;;;;;28.56;36.46;98748.56;4981888;28;20037;-69
2022/05/12 10:28:58;;;;;;;;;;;;;;;28.52;36.08;98714.69;4998721;28;20037;-69
2022/05/12 10:31:32;;;;;;;5.07;4.40;;;;;;;28.64;35.98;98708.31;4999567;28;19940;-71
2022/05/12 10:34:03;;;;;;;5.13;4.47;;;;;;;28.76;36.26;98715.13;5005713;28;20084;-69
2022/05/12 10:36:33;;;;;;;8.23;5.35;;;;;;;28.90;36.01;98712.03;5000241;28;20034;-68
2022/05/12 10:39:07;;;;;;;4.13;3.83;;;;;;;28.90;36.70;98704.13;5001524;28;20401;-65
2022/05/12 10:41:48;;;;;;;4.38;4.05;;;;;;;28.89;36.37;98720.13;5004860;28;20038;-62
2022/05/12 10:44:43;;;;;;;4.15;3.75;;;;;;;28.81;36.23;98720.00;5003448;28;20061;-65
2022/05/12 10:47:36;;;;;;;4.40;3.88;;;;;;;28.54;35.55;98732.06;5000621;28;20025;-63
2022/05/12 10:50:14;;;;;;;5.72;4.15;;;;;;;28.79;36.59;98721.94;5002444;28;20441;-64
2022/05/12 10:53:02;;;;;;;5.10;4.70;;;;;;;28.86;35.86;98710.66;5004641;28;20088;-62
2022/05/12 10:55:37;;;;;;;4.80;3.60;;;;;;;28.61;35.62;98709.41;5001106;28;20634;-63
2022/05/12 10:58:19;;;;;;;;;;;;;;;28.71;37.11;98719.16;5002239;28;20547;-63
2022/05/12 11:01:04;;;;;;;4.93;4.35;;;;;;;28.85;37.46;98719.56;5005497;28;19929;-63
2022/05/12 11:03:37;;;;;;;4.53;4.32;;;;;;;28.73;36.72;98723.31;5002331;28;20043;-63
2022/05/12 11:06:07;;;;;;;8.55;4.88;;;;;;;28.76;36.85;98719.59;4999261;28;20038;-63
2022/05/12 11:08:38;;;;;;;8.88;4.20;;;;;;;28.66;37.11;98714.28;5001587;28;20476;-64
2022/05/12 11:11:12;;;;;;;8.38;4.93;;;;;;;28.76;36.76;98717.78;5002913;28;20624;-63
2022/05/12 11:13:40;;;;;;;4.78;4.45;;;;;;;28.92;37.33;98727.75;5000669;28;20519;-63
2022/05/12 11:16:10;;;;;;;8.13;4.65;;;;;;;28.85;38.32;98709.00;4999725;28;20196;-62
2022/05/12 11:18:50;;;;;;;7.22;4.32;;;;;;;28.43;37.71;98710.28;5003572;28;20164;-62
2022/05/12 11:21:25;;;;;;;13.05;5.03;;;;;;;28.21;37.73;98716.66;5004256;28;20061;-62
2022/05/12 11:24:00;;;;;;;;;;;;;;;28.18;38.96;98726.66;5000199;28;20030;-63
2022/05/12 11:26:43;;;;;;;6.55;4.07;;;;;;;28.37;39.00;98716.09;4999538;28;19917;-63
2022/05/12 11:29:44;;;;;;;5.47;5.07;;;;;;;28.20;38.90;98745.78;5004653;28;20340;-64
2022/05/12 11:32:40;;;;;;;6.22;5.05;;;;;;;28.12;39.05;98726.22;4999347;28;20041;-63
2022/05/12 11:35:13;;;;;;;5.50;4.57;;;;;;;28.50;39.02;98721.94;5000609;28;20049;-63
2022/05/12 11:37:38;;;;;;;5.20;4.43;;;;;;;28.40;38.88;98715.81;5003142;28;20442;-61
2022/05/12 11:40:06;;;;;;;5.30;4.75;;;;;;;28.19;39.18;98709.84;5003073;28;20388;-63
2022/05/12 11:45:41;;;;;;;4.93;4.55;;;;;;;27.99;39.95;98716.88;4999616;28;20404;-63
2022/05/12 11:48:35;;;;;;;4.88;4.40;;;;;;;27.94;39.60;98717.28;5002177;28;20053;-62
2022/05/12 11:51:06;;;;;;;7.85;5.22;;;;;;;27.92;40.19;98713.94;4973408;28;20045;-63
2022/05/12 11:53:53;;;;;;;8.45;5.05;;;;;;;27.90;40.14;98718.53;4998741;28;20116;-63
2022/05/12 11:56:56;;;;;;;6.57;5.40;;;;;;;27.65;40.55;98714.56;5003091;28;20574;-62
2022/05/12 11:59:31;;;;;;;7.70;4.57;;;;;;;27.76;41.44;98710.16;5003659;28;20602;-63
2022/05/12 12:02:03;;;;;;;5.75;4.68;;;;;;;27.63;41.53;98711.22;5003013;28;20060;-64